createdAt,value
2022-10-16T00:00:56.445Z,2.60
2022-10-16T00:03:26.621Z,2.55
2022-10-16T00:06:01.427Z,2.90
2022-10-16T00:08:28.882Z,1.98
2022-10-16T00:11:01.359Z,2.90
2022-10-16T00:13:28.028Z,3.15
2022-10-16T00:15:59.910Z,3.00
2022-10-16T00:18:28.675Z,2.45
2022-10-16T00:23:27.634Z,2.55
2022-10-16T00:26:03.213Z,2.60
2022-10-16T00:28:30.139Z,3.03
2022-10-16T00:30:57.124Z,3.17
2022-10-16T00:33:23.872Z,2.72
2022-10-16T00:35:51.128Z,3.20
2022-10-16T00:38:18.002Z,2.90
2022-10-16T00:40:44.644Z,2.90
2022-10-16T00:43:33.525Z,3.22
2022-10-16T00:46:01.766Z,3.30
2022-10-16T00:48:28.702Z,3.60
2022-10-16T00:50:55.426Z,3.40
2022-10-16T00:53:22.835Z,3.22
2022-10-16T00:55:49.472Z,3.25
2022-10-16T00:58:16.107Z,2.97
2022-10-16T01:00:42.883Z,2.80
2022-10-16T01:03:35.017Z,3.10
2022-10-16T01:06:19.991Z,3.03
2022-10-16T01:09:26.217Z,3.00
2022-10-16T01:12:31.997Z,3.17
2022-10-16T01:15:07.082Z,3.25
2022-10-16T01:17:45.581Z,3.30
2022-10-16T01:20:30.000Z,3.40
2022-10-16T01:23:15.752Z,3.17
2022-10-16T01:25:54.127Z,3.03
2022-10-16T01:28:26.123Z,3.40
2022-10-16T01:30:57.249Z,3.10
2022-10-16T01:36:26.674Z,3.28
2022-10-16T01:38:57.501Z,3.03
2022-10-16T01:41:32.852Z,3.15
2022-10-16T01:44:07.153Z,2.90
2022-10-16T01:46:37.085Z,3.10
2022-10-16T01:49:04.799Z,3.38
2022-10-16T01:51:31.888Z,3.30
2022-10-16T01:54:02.082Z,3.20
2022-10-16T01:56:30.284Z,2.97
2022-10-16T01:59:04.962Z,3.70
2022-10-16T02:01:34.374Z,3.25
2022-10-16T02:04:08.421Z,3.53
2022-10-16T02:06:35.570Z,3.13
2022-10-16T02:09:02.204Z,3.80
2022-10-16T02:11:28.820Z,3.80
2022-10-16T02:14:13.959Z,3.25
2022-10-16T02:16:43.674Z,3.00
2022-10-16T02:19:14.142Z,3.28
2022-10-16T02:22:01.256Z,3.70
2022-10-16T02:24:49.448Z,3.42
2022-10-16T02:27:27.925Z,3.38
2022-10-16T02:30:13.179Z,3.70
2022-10-16T02:32:43.023Z,3.30
2022-10-16T02:35:10.409Z,3.45
2022-10-16T02:37:39.346Z,3.08
2022-10-16T02:40:08.147Z,3.28
2022-10-16T02:42:37.084Z,3.17
2022-10-16T02:45:04.999Z,3.40
2022-10-16T02:47:31.637Z,3.53
2022-10-16T02:49:58.282Z,3.80
2022-10-16T02:52:25.244Z,2.78
2022-10-16T02:54:52.666Z,3.83
2022-10-16T02:57:19.780Z,2.53
2022-10-16T02:59:46.626Z,3.20
2022-10-16T03:02:13.357Z,3.47
2022-10-16T03:04:40.026Z,2.92
2022-10-16T03:07:06.975Z,3.42
2022-10-16T03:09:33.661Z,3.35
2022-10-16T03:12:00.277Z,2.88
2022-10-16T03:16:58.618Z,3.25
2022-10-16T03:19:25.367Z,2.88
2022-10-16T03:21:52.115Z,2.60
2022-10-16T03:24:18.713Z,2.88
2022-10-16T03:26:45.374Z,2.72
2022-10-16T03:29:11.947Z,2.85
2022-10-16T03:31:38.671Z,3.13
2022-10-16T03:34:05.261Z,3.13
2022-10-16T03:36:32.142Z,2.75
2022-10-16T03:38:58.754Z,2.53
2022-10-16T03:41:25.371Z,2.92
2022-10-16T03:43:52.026Z,3.65
2022-10-16T03:46:18.629Z,2.80
2022-10-16T03:48:45.321Z,2.47
2022-10-16T03:51:11.899Z,3.00
2022-10-16T03:53:38.574Z,2.80
2022-10-16T03:56:05.445Z,2.70
2022-10-16T03:58:32.040Z,2.60
2022-10-16T04:00:58.768Z,2.67
2022-10-16T04:03:25.453Z,2.63
2022-10-16T04:05:52.147Z,2.53
2022-10-16T04:08:19.259Z,2.28
2022-10-16T04:10:46.255Z,2.63
2022-10-16T04:13:13.406Z,2.85
2022-10-16T04:15:40.149Z,2.80
2022-10-16T04:18:07.201Z,2.25
2022-10-16T04:20:34.563Z,2.50
2022-10-16T04:23:01.657Z,2.65
2022-10-16T04:25:28.442Z,2.63
2022-10-16T04:27:55.665Z,2.22
2022-10-16T04:30:23.356Z,2.55
2022-10-16T04:32:53.752Z,2.13
2022-10-16T04:35:22.251Z,2.33
2022-10-16T04:37:48.865Z,1.88
2022-10-16T04:40:15.897Z,1.90
2022-10-16T04:42:42.624Z,2.00
2022-10-16T04:45:12.130Z,1.67
2022-10-16T04:47:41.553Z,2.22
2022-10-16T04:50:08.773Z,2.13
2022-10-16T04:55:07.886Z,1.95
2022-10-16T04:57:34.713Z,1.85
2022-10-16T05:00:01.428Z,1.75
2022-10-16T05:02:28.140Z,1.50
2022-10-16T05:04:54.798Z,1.80
2022-10-16T05:07:21.377Z,1.88
2022-10-16T05:09:47.959Z,1.55
2022-10-16T05:12:14.627Z,1.75
2022-10-16T05:14:41.278Z,1.77
2022-10-16T05:17:07.931Z,2.10
2022-10-16T05:19:34.576Z,1.60
2022-10-16T05:22:01.530Z,1.73
2022-10-16T05:24:28.224Z,2.17
2022-10-16T05:26:55.099Z,2.00
2022-10-16T05:29:21.982Z,1.80
2022-10-16T05:31:51.588Z,1.60
2022-10-16T05:34:18.251Z,1.58
2022-10-16T05:36:46.129Z,1.60
2022-10-16T05:39:14.477Z,1.92
2022-10-16T05:41:41.103Z,1.73
2022-10-16T05:44:07.918Z,1.73
2022-10-16T05:46:34.675Z,1.85
2022-10-16T05:49:01.368Z,1.80
2022-10-16T05:51:27.989Z,1.90
2022-10-16T05:53:54.606Z,1.70
2022-10-16T05:56:21.319Z,1.80
2022-10-16T05:58:47.958Z,1.67
2022-10-16T06:01:19.689Z,1.42
2022-10-16T06:03:46.493Z,1.38
2022-10-16T06:06:18.603Z,1.38
2022-10-16T06:08:46.644Z,1.20
2022-10-16T06:11:16.209Z,1.48
2022-10-16T06:13:43.517Z,1.40
2022-10-16T06:16:11.567Z,1.10
2022-10-16T06:18:38.260Z,1.17
2022-10-16T06:21:10.800Z,1.10
2022-10-16T06:23:37.955Z,1.60
2022-10-16T06:26:09.888Z,1.30
2022-10-16T06:28:36.827Z,1.40
2022-10-16T06:31:08.086Z,1.25
2022-10-16T06:33:35.837Z,1.42
2022-10-16T06:36:06.532Z,1.08
2022-10-16T06:38:33.494Z,1.38
2022-10-16T06:41:00.306Z,1.20
2022-10-16T06:43:27.471Z,1.10
2022-10-16T06:45:57.831Z,1.35
2022-10-16T06:48:26.141Z,1.25
2022-10-16T06:53:39.773Z,1.20
2022-10-16T06:56:18.162Z,1.20
2022-10-16T06:58:45.679Z,1.40
2022-10-16T07:01:13.753Z,1.45
2022-10-16T07:03:42.327Z,1.40
2022-10-16T07:06:10.525Z,1.50
2022-10-16T07:08:39.359Z,1.25
2022-10-16T07:11:08.834Z,1.40
2022-10-16T07:13:37.058Z,1.10
2022-10-16T07:16:18.049Z,1.10
2022-10-16T07:18:47.354Z,1.30
2022-10-16T07:21:20.251Z,1.30
2022-10-16T07:23:51.507Z,1.10
2022-10-16T07:26:18.170Z,1.40
2022-10-16T07:28:47.338Z,1.13
2022-10-16T07:31:15.556Z,1.38
2022-10-16T07:33:45.297Z,1.55
2022-10-16T07:36:16.322Z,1.05
2022-10-16T07:38:43.731Z,1.08
2022-10-16T07:41:13.058Z,1.70
2022-10-16T07:43:39.976Z,1.30
2022-10-16T07:46:07.159Z,1.20
2022-10-16T07:48:35.291Z,1.20
2022-10-16T07:51:04.669Z,1.30
2022-10-16T07:53:32.008Z,1.50
2022-10-16T07:56:00.760Z,1.50
2022-10-16T07:58:28.909Z,1.30
2022-10-16T08:00:56.759Z,3.10
2022-10-16T08:03:24.635Z,2.33
2022-10-16T08:05:51.537Z,1.50
2022-10-16T08:08:19.702Z,1.40
2022-10-16T08:10:46.650Z,1.40
2022-10-16T08:13:16.071Z,1.30
2022-10-16T08:15:44.018Z,1.40
2022-10-16T08:18:13.189Z,1.10
2022-10-16T08:20:42.361Z,1.48
2022-10-16T08:23:11.632Z,1.27
2022-10-16T08:25:39.131Z,1.38
2022-10-16T08:28:06.929Z,1.30
2022-10-16T08:30:34.426Z,1.13
2022-10-16T08:33:01.625Z,1.88
2022-10-16T08:35:28.344Z,1.23
2022-10-16T08:37:54.986Z,1.10
2022-10-16T08:43:24.439Z,1.23
2022-10-16T08:46:24.754Z,0.90
2022-10-16T08:48:54.162Z,0.82
2022-10-16T08:51:24.947Z,0.98
2022-10-16T08:54:02.062Z,0.90
2022-10-16T08:56:29.050Z,0.80
2022-10-16T08:58:59.913Z,0.90
2022-10-16T09:01:51.027Z,0.82
2022-10-16T09:04:32.192Z,0.90
2022-10-16T09:07:03.461Z,0.88
2022-10-16T09:10:05.539Z,1.10
2022-10-16T09:13:03.204Z,0.80
2022-10-16T09:15:45.038Z,0.88
2022-10-16T09:18:37.860Z,1.10
2022-10-16T09:21:16.566Z,1.00
2022-10-16T09:23:43.217Z,1.00
2022-10-16T09:26:16.098Z,0.68
2022-10-16T09:28:43.317Z,0.93
2022-10-16T09:31:28.221Z,1.05
2022-10-16T09:34:00.534Z,0.70
2022-10-16T09:36:29.470Z,1.10
2022-10-16T09:39:07.506Z,0.60
2022-10-16T09:41:38.127Z,0.90
2022-10-16T09:44:14.959Z,0.70
2022-10-16T09:46:42.070Z,1.00
2022-10-16T09:49:26.425Z,0.80
2022-10-16T09:52:14.234Z,0.90
2022-10-16T09:55:13.445Z,1.17
2022-10-16T09:58:00.417Z,0.90
2022-10-16T10:00:27.442Z,0.80
2022-10-16T10:05:29.451Z,1.10
2022-10-16T10:08:01.691Z,1.38
2022-10-16T10:10:30.987Z,1.30
2022-10-16T10:12:57.985Z,1.05
2022-10-16T10:15:27.652Z,1.67
2022-10-16T10:17:58.529Z,1.50
2022-10-16T10:20:33.638Z,2.03
2022-10-16T10:23:00.437Z,1.90
2022-10-16T10:25:59.567Z,1.80
2022-10-16T10:28:44.040Z,1.60
2022-10-16T10:31:48.921Z,1.92
2022-10-16T10:34:40.063Z,1.60
2022-10-16T10:37:21.856Z,1.40
2022-10-16T10:40:03.059Z,1.65
2022-10-16T10:42:41.632Z,1.23
2022-10-16T10:45:42.371Z,1.33
2022-10-16T10:48:18.088Z,1.48
2022-10-16T10:51:00.972Z,1.40
2022-10-16T10:54:05.043Z,1.00
2022-10-16T10:56:42.183Z,1.10
2022-10-16T10:59:43.427Z,0.95
2022-10-16T11:02:48.691Z,0.90
2022-10-16T11:05:40.090Z,0.82
2022-10-16T11:08:33.496Z,0.70
2022-10-16T11:11:04.474Z,1.48
2022-10-16T11:13:43.191Z,1.08
2022-10-16T11:16:21.501Z,0.70
2022-10-16T11:18:59.733Z,0.73
2022-10-16T11:21:31.167Z,0.82
2022-10-16T11:24:01.309Z,1.17
2022-10-16T11:26:33.792Z,1.83
2022-10-16T11:29:04.023Z,2.90
2022-10-16T11:31:41.039Z,2.38
2022-10-16T11:34:22.881Z,3.45
2022-10-16T11:36:56.628Z,4.57
2022-10-16T11:39:31.319Z,2.92
2022-10-16T11:42:20.938Z,4.45
2022-10-16T11:45:11.243Z,3.60
2022-10-16T11:47:58.663Z,2.30
2022-10-16T11:50:49.848Z,1.75
2022-10-16T11:53:51.598Z,1.10
2022-10-16T11:56:20.750Z,1.45
2022-10-16T11:59:14.026Z,1.13
2022-10-16T12:02:16.182Z,1.65
2022-10-16T12:04:57.457Z,1.17
2022-10-16T12:07:29.165Z,0.95
2022-10-16T12:09:57.057Z,0.93
2022-10-16T12:12:36.959Z,1.25
2022-10-16T12:15:35.217Z,0.93
2022-10-16T12:18:23.537Z,1.65
2022-10-16T12:20:59.920Z,1.27
2022-10-16T12:23:26.714Z,2.25
2022-10-16T12:25:58.295Z,1.50
2022-10-16T12:28:33.691Z,1.23
2022-10-16T12:31:03.740Z,1.60
2022-10-16T12:33:33.930Z,1.20
2022-10-16T12:36:04.455Z,1.58
2022-10-16T12:38:51.361Z,1.48
2022-10-16T12:41:40.679Z,0.95
2022-10-16T12:44:27.223Z,1.23
2022-10-16T12:46:53.892Z,1.05
2022-10-16T12:49:25.269Z,1.17
2022-10-16T12:51:52.261Z,1.05
2022-10-16T12:54:28.228Z,0.80
2022-10-16T12:57:20.392Z,0.98
2022-10-16T13:00:21.235Z,1.10
2022-10-16T13:03:25.433Z,0.75
2022-10-16T13:06:01.477Z,0.80
2022-10-16T13:08:39.904Z,0.82
2022-10-16T13:11:30.139Z,0.82
2022-10-16T13:14:21.042Z,0.60
2022-10-16T13:17:10.653Z,1.35
2022-10-16T13:19:49.252Z,0.70
2022-10-16T13:22:47.786Z,0.70
2022-10-16T13:25:29.431Z,0.88
2022-10-16T13:28:04.878Z,0.90
2022-10-16T13:30:37.261Z,1.00
2022-10-16T13:33:32.944Z,0.98
2022-10-16T13:35:59.893Z,1.20
2022-10-16T13:38:34.784Z,0.95
2022-10-16T13:41:03.925Z,1.25
2022-10-16T13:43:44.169Z,0.90
2022-10-16T13:46:22.899Z,1.63
2022-10-16T13:48:58.800Z,0.88
2022-10-16T13:51:26.946Z,1.00
2022-10-16T13:53:55.582Z,1.10
2022-10-16T13:56:24.191Z,1.10
2022-10-16T13:59:22.781Z,1.13
2022-10-16T14:01:51.003Z,0.90
2022-10-16T14:04:17.826Z,0.70
2022-10-16T14:06:47.452Z,1.17
2022-10-16T14:09:29.862Z,1.27
2022-10-16T14:11:57.871Z,1.20
2022-10-16T14:14:25.376Z,1.05
2022-10-16T14:16:52.193Z,1.00
2022-10-16T14:19:30.565Z,0.88
2022-10-16T14:21:58.675Z,1.13
2022-10-16T14:24:43.465Z,1.65
2022-10-16T14:27:34.745Z,1.33
2022-10-16T14:30:17.151Z,1.23
2022-10-16T14:32:55.283Z,1.20
2022-10-16T14:35:24.862Z,1.80
2022-10-16T14:37:56.226Z,1.38
2022-10-16T14:40:25.994Z,1.10
2022-10-16T14:42:53.608Z,1.10
2022-10-16T14:45:23.006Z,1.30
2022-10-16T14:47:59.064Z,1.25
2022-10-16T14:50:26.111Z,0.90
2022-10-16T14:52:52.722Z,0.88
2022-10-16T14:55:19.836Z,0.73
2022-10-16T14:57:48.287Z,0.82
2022-10-16T15:00:24.183Z,0.77
2022-10-16T15:02:51.720Z,0.80
2022-10-16T15:05:27.202Z,0.82
2022-10-16T15:07:56.904Z,1.10
2022-10-16T15:10:26.764Z,0.73
2022-10-16T15:12:53.541Z,2.45
2022-10-16T15:15:29.191Z,1.30
2022-10-16T15:17:57.764Z,1.38
2022-10-16T15:20:25.822Z,1.48
2022-10-16T15:22:52.735Z,0.93
2022-10-16T15:25:45.690Z,1.00
2022-10-16T15:28:13.593Z,0.80
2022-10-16T15:30:40.701Z,0.80
2022-10-16T15:33:16.952Z,0.73
2022-10-16T15:35:43.940Z,1.60
2022-10-16T15:38:13.649Z,1.00
2022-10-16T15:40:40.700Z,1.20
2022-10-16T15:43:07.503Z,0.73
2022-10-16T15:45:34.440Z,0.63
2022-10-16T15:48:01.345Z,0.68
2022-10-16T15:50:28.311Z,0.90
2022-10-16T15:52:54.910Z,0.80
2022-10-16T15:55:21.543Z,1.15
2022-10-16T15:57:48.176Z,1.23
2022-10-16T16:00:18.264Z,1.48
2022-10-16T16:02:50.327Z,1.48
2022-10-16T16:05:16.971Z,1.42
2022-10-16T16:07:43.582Z,1.70
2022-10-16T16:10:12.179Z,1.35
2022-10-16T16:12:39.306Z,1.83
2022-10-16T16:15:07.536Z,1.98
2022-10-16T16:17:35.270Z,4.00
2022-10-16T16:20:02.595Z,3.22
2022-10-16T16:22:29.801Z,4.45
2022-10-16T16:24:56.791Z,5.63
2022-10-16T16:27:26.149Z,6.32
2022-10-16T16:29:54.174Z,4.85
2022-10-16T16:32:20.868Z,5.70
2022-10-16T16:34:47.667Z,4.20
2022-10-16T16:37:14.594Z,3.15
2022-10-16T16:39:42.143Z,3.30
2022-10-16T16:42:08.895Z,2.83
2022-10-16T16:44:37.054Z,2.60
2022-10-16T16:47:04.933Z,1.90
2022-10-16T16:49:31.581Z,1.77
2022-10-16T16:51:58.645Z,2.25
2022-10-16T16:54:25.710Z,2.53
2022-10-16T16:56:52.528Z,2.55
2022-10-16T16:59:22.666Z,2.38
2022-10-16T17:01:54.152Z,2.40
2022-10-16T17:04:23.191Z,2.70
2022-10-16T17:06:49.912Z,2.20
2022-10-16T17:09:16.703Z,2.53
2022-10-16T17:11:45.319Z,6.97
2022-10-16T17:14:12.376Z,6.82
2022-10-16T17:16:40.778Z,4.32
2022-10-16T17:19:10.933Z,5.32
2022-10-16T17:21:38.424Z,5.10
2022-10-16T17:24:05.932Z,4.30
2022-10-16T17:26:32.755Z,4.60
2022-10-16T17:29:01.544Z,3.35
2022-10-16T17:31:31.207Z,2.55
2022-10-16T17:34:02.249Z,4.00
2022-10-16T17:36:32.971Z,4.13
2022-10-16T17:39:04.768Z,4.10
2022-10-16T17:41:32.437Z,4.10
2022-10-16T17:43:59.560Z,4.07
2022-10-16T17:46:26.267Z,3.03
2022-10-16T17:48:55.628Z,2.92
2022-10-16T17:51:28.276Z,3.30
2022-10-16T17:53:58.050Z,2.70
2022-10-16T17:56:25.973Z,3.17
2022-10-16T17:58:55.166Z,3.58
2022-10-16T18:01:27.667Z,3.00
2022-10-16T18:03:57.619Z,3.10
2022-10-16T18:06:24.817Z,2.63
2022-10-16T18:08:56.423Z,3.28
2022-10-16T18:11:23.189Z,3.10
2022-10-16T18:13:56.085Z,3.20
2022-10-16T18:16:23.427Z,2.90
2022-10-16T18:18:50.330Z,2.45
2022-10-16T18:21:19.355Z,2.88
2022-10-16T18:23:51.029Z,2.63
2022-10-16T18:26:19.287Z,2.85
2022-10-16T18:28:46.087Z,3.70
2022-10-16T18:31:15.125Z,3.00
2022-10-16T18:33:48.429Z,2.00
2022-10-16T18:36:16.159Z,2.30
2022-10-16T18:38:44.245Z,2.83
2022-10-16T18:41:11.075Z,3.42
2022-10-16T18:43:39.090Z,3.38
2022-10-16T18:46:08.513Z,2.90
2022-10-16T18:48:35.744Z,2.95
2022-10-16T18:51:15.189Z,2.90
2022-10-16T18:53:44.628Z,3.40
2022-10-16T18:56:14.674Z,3.95
2022-10-16T18:58:43.144Z,4.53
2022-10-16T19:01:16.376Z,5.47
2022-10-16T19:03:44.779Z,4.18
2022-10-16T19:06:14.352Z,2.97
2022-10-16T19:08:41.798Z,1.95
2022-10-16T19:11:16.367Z,2.63
2022-10-16T19:13:44.953Z,4.18
2022-10-16T19:16:21.885Z,3.40
2022-10-16T19:18:55.541Z,3.30
2022-10-16T19:21:24.203Z,2.60
2022-10-16T19:23:58.552Z,2.95
2022-10-16T19:26:26.240Z,3.33
2022-10-16T19:28:55.794Z,2.85
2022-10-16T19:31:24.630Z,2.80
2022-10-16T19:33:53.159Z,2.60
2022-10-16T19:36:34.061Z,3.10
2022-10-16T19:39:06.840Z,2.97
2022-10-16T19:41:35.821Z,3.17
2022-10-16T19:44:04.462Z,2.85
2022-10-16T19:46:31.827Z,2.90
2022-10-16T19:49:01.340Z,2.88
2022-10-16T19:51:29.254Z,2.80
2022-10-16T19:53:58.011Z,3.15
2022-10-16T19:56:27.493Z,2.50
2022-10-16T19:58:56.017Z,2.90
2022-10-16T20:01:24.366Z,2.47
2022-10-16T20:03:51.228Z,2.80
2022-10-16T20:06:19.723Z,2.55
2022-10-16T20:08:48.664Z,2.47
2022-10-16T20:11:21.238Z,2.65
2022-10-16T20:13:47.946Z,2.40
2022-10-16T20:16:17.755Z,3.17
2022-10-16T20:18:45.017Z,2.50
2022-10-16T20:21:14.050Z,1.98
2022-10-16T20:23:41.345Z,2.78
2022-10-16T20:26:11.256Z,2.63
2022-10-16T20:28:40.431Z,2.97
2022-10-16T20:31:11.055Z,3.10
2022-10-16T20:33:38.205Z,3.40
2022-10-16T20:36:05.206Z,3.80
2022-10-16T20:38:31.826Z,3.97
2022-10-16T20:41:03.902Z,3.75
2022-10-16T20:43:30.946Z,4.20
2022-10-16T20:46:03.024Z,3.97
2022-10-16T20:48:29.688Z,4.60
2022-10-16T20:50:56.464Z,4.00
2022-10-16T20:53:23.106Z,3.90
2022-10-16T20:55:49.762Z,3.90
2022-10-16T20:58:17.362Z,3.28
2022-10-16T21:00:44.337Z,3.72
2022-10-16T21:03:11.984Z,3.33
2022-10-16T21:05:42.616Z,3.47
2022-10-16T21:08:09.339Z,3.58
2022-10-16T21:10:36.030Z,3.50
2022-10-16T21:13:03.512Z,3.50
2022-10-16T21:15:30.201Z,3.33
2022-10-16T21:17:56.834Z,3.13
2022-10-16T21:20:23.531Z,3.47
2022-10-16T21:22:50.160Z,3.00
2022-10-16T21:25:16.792Z,3.50
2022-10-16T21:27:43.481Z,3.72
2022-10-16T21:30:10.742Z,3.47
2022-10-16T21:32:38.303Z,3.45
2022-10-16T21:35:06.501Z,4.03
2022-10-16T21:37:33.635Z,3.78
2022-10-16T21:40:00.270Z,3.80
2022-10-16T21:42:27.269Z,4.20
2022-10-16T21:44:54.049Z,4.13
2022-10-16T21:47:20.672Z,4.60
2022-10-16T21:49:47.348Z,4.45
2022-10-16T21:52:13.994Z,4.63
2022-10-16T21:54:40.665Z,4.05
2022-10-16T21:57:07.350Z,4.88
2022-10-16T21:59:34.041Z,4.05
2022-10-16T22:02:02.921Z,4.15
2022-10-16T22:04:29.717Z,4.18
2022-10-16T22:06:56.380Z,3.78
2022-10-16T22:09:23.017Z,4.03
2022-10-16T22:11:50.733Z,4.20
2022-10-16T22:14:19.462Z,3.95
2022-10-16T22:16:47.135Z,3.60
2022-10-16T22:19:16.102Z,4.05
2022-10-16T22:21:45.860Z,3.70
2022-10-16T22:24:13.433Z,4.20
2022-10-16T22:26:40.263Z,4.65
2022-10-16T22:29:07.271Z,4.15
2022-10-16T22:31:34.497Z,4.50
2022-10-16T22:34:03.202Z,4.72
2022-10-16T22:36:30.531Z,3.90
2022-10-16T22:38:57.794Z,3.83
2022-10-16T22:41:27.427Z,4.15
2022-10-16T22:43:54.193Z,3.47
2022-10-16T22:46:29.171Z,3.63
2022-10-16T22:48:56.380Z,3.05
2022-10-16T22:51:24.588Z,3.50
2022-10-16T22:53:51.318Z,3.67
2022-10-16T22:56:20.490Z,3.85
2022-10-16T22:58:47.293Z,3.10
2022-10-16T23:01:21.731Z,3.20
2022-10-16T23:03:48.497Z,2.95
2022-10-16T23:06:15.288Z,3.13
2022-10-16T23:08:42.041Z,2.63
2022-10-16T23:11:11.356Z,2.70
2022-10-16T23:13:39.783Z,2.63
2022-10-16T23:16:07.498Z,2.78
2022-10-16T23:18:34.631Z,2.85
2022-10-16T23:21:05.815Z,2.80
2022-10-16T23:23:33.723Z,2.97
2022-10-16T23:26:00.330Z,2.75
2022-10-16T23:28:26.968Z,2.67
2022-10-16T23:30:53.569Z,2.58
2022-10-16T23:33:20.197Z,2.50
2022-10-16T23:35:46.867Z,2.60
2022-10-16T23:38:13.488Z,2.15
2022-10-16T23:40:40.134Z,2.42
2022-10-16T23:43:06.801Z,2.25
2022-10-16T23:45:33.421Z,2.15
2022-10-16T23:48:00.095Z,2.40
2022-10-16T23:50:28.628Z,2.50
2022-10-16T23:52:55.283Z,2.53
2022-10-16T23:55:21.926Z,2.33
2022-10-16T23:57:48.570Z,1.83
